createdAt,value
2017-11-24T00:00:11.320Z,2.83
2017-11-24T00:02:37.603Z,2.27
2017-11-24T00:05:03.886Z,2.23
2017-11-24T00:07:30.987Z,2.60
2017-11-24T00:09:57.234Z,2.10
2017-11-24T00:12:23.493Z,2.20
2017-11-24T00:14:49.737Z,2.40
2017-11-24T00:17:16.063Z,2.83
2017-11-24T00:19:42.302Z,2.37
2017-11-24T00:22:08.567Z,1.70
2017-11-24T00:24:34.811Z,2.60
2017-11-24T00:27:01.054Z,2.00
2017-11-24T00:29:27.264Z,2.83
2017-11-24T00:31:54.271Z,2.60
2017-11-24T00:34:21.300Z,2.23
2017-11-24T00:36:47.562Z,2.60
2017-11-24T00:39:13.825Z,2.33
2017-11-24T00:41:40.074Z,2.50
2017-11-24T00:44:07.126Z,2.30
2017-11-24T00:46:33.514Z,2.30
2017-11-24T00:48:59.785Z,2.10
2017-11-24T00:51:26.388Z,2.57
2017-11-24T00:53:53.712Z,1.97
2017-11-24T00:56:19.965Z,2.73
2017-11-24T00:58:46.951Z,2.80
2017-11-24T01:01:14.459Z,2.27
2017-11-24T01:03:40.764Z,2.33
2017-11-24T01:06:07.022Z,2.00
2017-11-24T01:08:33.294Z,3.03
2017-11-24T01:10:59.549Z,2.47
2017-11-24T01:13:25.854Z,1.93
2017-11-24T01:15:52.768Z,2.23
2017-11-24T01:18:19.027Z,2.07
2017-11-24T01:20:46.026Z,1.70
2017-11-24T01:23:12.311Z,2.30
2017-11-24T01:25:39.308Z,2.40
2017-11-24T01:28:05.555Z,2.77
2017-11-24T01:30:31.813Z,3.87
2017-11-24T01:32:58.111Z,2.80
2017-11-24T01:35:24.401Z,2.73
2017-11-24T01:37:50.693Z,3.27
2017-11-24T01:40:17.000Z,3.17
2017-11-24T01:42:44.179Z,2.10
2017-11-24T01:45:11.426Z,2.23
2017-11-24T01:47:38.475Z,2.50
2017-11-24T01:50:04.808Z,2.77
2017-11-24T01:52:31.232Z,2.00
2017-11-24T01:54:57.491Z,2.37
2017-11-24T01:57:24.490Z,2.77
2017-11-24T01:59:51.503Z,2.67
2017-11-24T02:02:17.807Z,2.40
2017-11-24T02:04:44.253Z,2.40
2017-11-24T02:07:10.531Z,3.60
2017-11-24T02:09:36.843Z,2.07
2017-11-24T02:12:03.179Z,3.37
2017-11-24T02:14:29.572Z,2.90
2017-11-24T02:16:55.835Z,2.90
2017-11-24T02:19:22.100Z,2.50
2017-11-24T02:21:48.392Z,3.60
2017-11-24T02:24:14.809Z,3.17
2017-11-24T02:26:41.627Z,3.30
2017-11-24T02:29:08.049Z,3.90
2017-11-24T02:31:34.335Z,5.70
2017-11-24T02:34:01.319Z,3.73
2017-11-24T02:36:27.643Z,4.00
2017-11-24T02:38:53.959Z,3.80
2017-11-24T02:41:20.975Z,3.50
2017-11-24T02:43:47.259Z,3.73
2017-11-24T02:46:13.504Z,4.40
2017-11-24T02:48:39.751Z,4.10
2017-11-24T02:51:08.980Z,3.73
2017-11-24T02:53:35.256Z,3.53
2017-11-24T02:56:01.507Z,3.10
2017-11-24T02:58:27.939Z,4.07
2017-11-24T03:00:54.243Z,3.67
2017-11-24T03:03:20.530Z,3.77
2017-11-24T03:05:46.783Z,3.27
2017-11-24T03:08:13.038Z,4.70
2017-11-24T03:10:40.178Z,4.17
2017-11-24T03:13:06.444Z,4.17
2017-11-24T03:15:32.682Z,3.80
2017-11-24T03:17:59.027Z,4.97
2017-11-24T03:20:25.307Z,4.90
2017-11-24T03:22:52.618Z,4.20
2017-11-24T03:25:18.949Z,4.03
2017-11-24T03:27:45.257Z,3.90
2017-11-24T03:30:11.555Z,3.80
2017-11-24T03:32:38.180Z,3.57
2017-11-24T03:35:04.548Z,3.73
2017-11-24T03:37:30.810Z,3.70
2017-11-24T03:39:57.825Z,3.30
2017-11-24T03:42:24.151Z,4.20
2017-11-24T03:44:50.402Z,4.00
2017-11-24T03:47:16.654Z,4.23
2017-11-24T03:49:42.949Z,4.50
2017-11-24T03:52:10.239Z,3.73
2017-11-24T03:54:36.627Z,4.47
2017-11-24T03:57:03.676Z,3.47
2017-11-24T03:59:29.956Z,4.50
2017-11-24T04:01:56.973Z,3.93
2017-11-24T04:04:23.295Z,3.30
2017-11-24T04:06:50.577Z,4.03
2017-11-24T04:09:17.650Z,3.40
2017-11-24T04:11:43.990Z,3.37
2017-11-24T04:14:10.315Z,3.97
2017-11-24T04:16:37.281Z,3.70
2017-11-24T04:19:03.589Z,4.10
2017-11-24T04:21:29.855Z,3.83
2017-11-24T04:23:56.150Z,4.30
2017-11-24T04:26:22.528Z,4.23
2017-11-24T04:28:49.812Z,4.93
2017-11-24T04:31:16.335Z,6.00
2017-11-24T04:33:42.660Z,6.60
2017-11-24T04:36:09.700Z,6.50
2017-11-24T04:38:37.191Z,5.03
2017-11-24T04:41:03.674Z,5.30
2017-11-24T04:43:31.091Z,5.40
2017-11-24T04:45:57.459Z,6.50
2017-11-24T04:48:26.172Z,5.60
2017-11-24T04:50:52.442Z,5.90
2017-11-24T04:53:18.740Z,5.10
2017-11-24T04:55:46.757Z,4.80
2017-11-24T04:58:13.051Z,5.63
2017-11-24T05:00:40.051Z,4.50
2017-11-24T05:03:06.880Z,4.73
2017-11-24T05:05:33.144Z,5.37
2017-11-24T05:07:59.433Z,5.27
2017-11-24T05:10:25.715Z,4.80
2017-11-24T05:12:52.452Z,5.00
2017-11-24T05:15:19.537Z,5.17
2017-11-24T05:17:45.763Z,5.50
2017-11-24T05:20:12.040Z,4.47
2017-11-24T05:22:38.372Z,6.10
2017-11-24T05:25:04.621Z,5.47
2017-11-24T05:27:30.911Z,6.00
2017-11-24T05:29:57.211Z,6.17
2017-11-24T05:32:23.466Z,7.47
2017-11-24T05:34:50.511Z,5.30
2017-11-24T05:37:16.760Z,5.33
2017-11-24T05:39:43.024Z,5.40
2017-11-24T05:42:09.480Z,6.73
2017-11-24T05:44:35.854Z,6.57
2017-11-24T05:47:02.131Z,7.50
2017-11-24T05:49:28.403Z,7.07
2017-11-24T05:51:55.627Z,9.83
2017-11-24T05:54:21.908Z,10.20
2017-11-24T05:56:48.939Z,9.97
2017-11-24T05:59:15.207Z,9.00
2017-11-24T06:01:43.383Z,10.70
2017-11-24T06:04:09.725Z,10.03
2017-11-24T06:06:36.104Z,9.90
2017-11-24T06:09:02.435Z,11.17
2017-11-24T06:11:29.547Z,12.47
2017-11-24T06:13:55.840Z,11.77
2017-11-24T06:16:23.003Z,8.87
2017-11-24T06:18:50.093Z,7.30
2017-11-24T06:21:16.369Z,8.17
2017-11-24T06:23:46.546Z,7.80
2017-11-24T06:26:14.973Z,8.68
2017-11-24T06:28:42.036Z,8.43
2017-11-24T06:31:08.428Z,5.45
2017-11-24T06:33:35.647Z,5.10
2017-11-24T06:36:01.900Z,6.95
2017-11-24T06:38:28.170Z,6.30
2017-11-24T06:40:55.250Z,5.60
2017-11-24T06:43:22.250Z,4.70
2017-11-24T06:45:48.509Z,6.55
2017-11-24T06:48:16.239Z,4.97
2017-11-24T06:50:42.530Z,6.10
2017-11-24T06:53:08.794Z,6.75
2017-11-24T06:55:35.074Z,6.03
2017-11-24T06:58:01.415Z,5.40
2017-11-24T07:00:27.723Z,7.50
2017-11-24T07:02:53.993Z,8.00
2017-11-24T07:05:20.276Z,7.78
2017-11-24T07:07:46.735Z,7.80
2017-11-24T07:10:13.864Z,8.00
2017-11-24T07:12:44.643Z,8.13
2017-11-24T07:15:10.894Z,8.00
2017-11-24T07:17:37.179Z,7.60
2017-11-24T07:20:03.455Z,6.33
2017-11-24T07:22:29.827Z,7.97
2017-11-24T07:24:56.321Z,6.70
2017-11-24T07:27:22.651Z,9.23
2017-11-24T07:29:48.939Z,8.30
2017-11-24T07:32:15.207Z,8.40
2017-11-24T07:34:43.419Z,9.60
2017-11-24T07:37:09.711Z,8.20
2017-11-24T07:39:36.003Z,8.47
2017-11-24T07:42:02.420Z,9.93
2017-11-24T07:44:28.704Z,8.90
2017-11-24T07:46:55.015Z,8.53
2017-11-24T07:49:23.095Z,9.10
2017-11-24T07:51:49.436Z,8.30
2017-11-24T07:54:16.698Z,8.70
2017-11-24T07:56:42.991Z,9.43
2017-11-24T07:59:09.411Z,8.90
2017-11-24T08:01:36.889Z,9.17
2017-11-24T08:04:03.195Z,9.67
2017-11-24T08:06:30.191Z,9.63
2017-11-24T08:08:57.223Z,12.10
2017-11-24T08:11:23.557Z,12.07
2017-11-24T08:13:50.563Z,13.93
2017-11-24T08:16:17.599Z,14.37
2017-11-24T08:18:44.064Z,12.07
2017-11-24T08:21:10.359Z,14.63
2017-11-24T08:23:37.579Z,12.00
2017-11-24T08:26:04.014Z,12.03
2017-11-24T08:28:30.287Z,13.53
2017-11-24T08:30:56.672Z,14.60
2017-11-24T08:33:25.282Z,18.73
2017-11-24T08:35:52.371Z,13.40
2017-11-24T08:38:20.663Z,13.90
2017-11-24T08:40:47.075Z,13.53
2017-11-24T08:43:13.356Z,13.43
2017-11-24T08:45:39.666Z,13.30
2017-11-24T08:48:12.081Z,12.93
2017-11-24T08:50:38.364Z,13.00
2017-11-24T08:53:04.724Z,15.00
2017-11-24T08:55:31.344Z,14.40
2017-11-24T08:57:58.612Z,16.23
2017-11-24T09:00:25.695Z,12.90
2017-11-24T09:02:52.027Z,15.57
2017-11-24T09:05:18.813Z,13.10
2017-11-24T09:07:45.111Z,13.70
2017-11-24T09:10:11.590Z,15.10
2017-11-24T09:12:37.904Z,13.90
2017-11-24T09:15:04.271Z,14.97
2017-11-24T09:17:31.292Z,14.80
2017-11-24T09:19:57.546Z,14.00
2017-11-24T09:22:24.570Z,14.10
2017-11-24T09:24:50.871Z,13.70
2017-11-24T09:27:20.480Z,13.40
2017-11-24T09:29:46.758Z,13.40
2017-11-24T09:32:13.026Z,11.47
2017-11-24T09:34:39.282Z,14.60
2017-11-24T09:37:05.555Z,13.53
2017-11-24T09:39:31.877Z,11.80
2017-11-24T09:41:58.154Z,11.10
2017-11-24T09:44:34.394Z,10.50
2017-11-24T09:47:00.687Z,10.20
2017-11-24T09:49:27.018Z,11.43
2017-11-24T09:51:54.074Z,9.90
2017-11-24T09:54:20.338Z,9.87
2017-11-24T09:56:46.616Z,7.37
2017-11-24T09:59:12.927Z,9.07
2017-11-24T10:01:44.487Z,8.13
2017-11-24T10:04:10.779Z,8.77
2017-11-24T10:06:37.038Z,8.67
2017-11-24T10:09:03.272Z,7.73
2017-11-24T10:11:29.580Z,7.77
2017-11-24T10:13:56.619Z,9.80
2017-11-24T10:16:22.940Z,11.30
2017-11-24T10:18:55.653Z,7.97
2017-11-24T10:21:28.164Z,7.83
2017-11-24T10:23:54.409Z,8.10
2017-11-24T10:26:20.644Z,10.00
2017-11-24T10:28:46.919Z,8.20
2017-11-24T10:31:13.944Z,5.70
2017-11-24T10:33:41.857Z,8.10
2017-11-24T10:36:11.795Z,8.80
2017-11-24T10:38:38.176Z,9.80
2017-11-24T10:41:04.533Z,11.40
2017-11-24T10:43:30.787Z,11.33
2017-11-24T10:45:57.112Z,12.00
2017-11-24T10:48:23.415Z,10.70
2017-11-24T10:50:49.756Z,12.03
2017-11-24T10:55:47.587Z,10.77
2017-11-24T10:58:13.842Z,12.17
2017-11-24T11:00:40.156Z,13.07
2017-11-24T11:03:06.483Z,12.47
2017-11-24T11:05:33.626Z,12.63
2017-11-24T11:08:00.165Z,16.37
2017-11-24T11:10:31.108Z,11.97
2017-11-24T11:12:58.206Z,10.87
2017-11-24T11:15:24.523Z,10.60
2017-11-24T11:17:52.886Z,11.47
2017-11-24T11:20:19.163Z,9.47
2017-11-24T11:22:45.424Z,13.03
2017-11-24T11:25:11.695Z,11.63
2017-11-24T11:27:37.989Z,10.40
2017-11-24T11:30:05.683Z,10.27
2017-11-24T11:32:32.256Z,9.87
2017-11-24T11:34:58.588Z,9.57
2017-11-24T11:37:24.986Z,9.33
2017-11-24T11:39:52.595Z,9.30
2017-11-24T11:42:18.876Z,9.77
2017-11-24T11:44:45.109Z,8.70
2017-11-24T11:47:11.356Z,7.43
2017-11-24T11:49:41.226Z,8.10
2017-11-24T11:52:08.232Z,9.70
2017-11-24T11:54:35.649Z,10.87
2017-11-24T11:57:02.088Z,13.23
2017-11-24T11:59:28.569Z,11.87
2017-11-24T12:01:54.887Z,13.57
2017-11-24T12:06:54.585Z,12.57
2017-11-24T12:09:20.947Z,14.03
2017-11-24T12:11:47.183Z,16.10
2017-11-24T12:14:14.868Z,12.53
2017-11-24T12:16:41.223Z,12.90
2017-11-24T12:19:07.498Z,14.03
2017-11-24T12:21:41.737Z,12.07
2017-11-24T12:24:08.071Z,9.77
2017-11-24T12:26:34.338Z,9.47
2017-11-24T12:29:00.604Z,9.27
2017-11-24T12:31:26.900Z,10.17
2017-11-24T12:33:53.183Z,9.17
2017-11-24T12:36:24.745Z,9.27
2017-11-24T12:38:51.836Z,9.20
2017-11-24T12:41:18.106Z,10.00
2017-11-24T12:43:44.380Z,10.47
2017-11-24T12:46:10.709Z,10.53
2017-11-24T12:48:36.988Z,10.77
2017-11-24T12:51:03.267Z,11.77
2017-11-24T12:53:30.257Z,10.93
2017-11-24T12:55:56.519Z,11.57
2017-11-24T12:58:23.500Z,12.87
2017-11-24T13:00:49.749Z,13.27
2017-11-24T13:03:15.998Z,14.50
2017-11-24T13:05:42.289Z,13.40
2017-11-24T13:08:08.551Z,14.20
2017-11-24T13:10:34.826Z,13.30
2017-11-24T13:13:01.080Z,14.00
2017-11-24T13:15:27.434Z,14.00
2017-11-24T13:17:53.674Z,12.83
2017-11-24T13:20:19.920Z,15.73
2017-11-24T13:22:46.230Z,12.90
2017-11-24T13:25:13.231Z,12.07
2017-11-24T13:27:39.539Z,10.90
2017-11-24T13:30:05.816Z,13.70
2017-11-24T13:32:32.820Z,13.20
2017-11-24T13:34:59.077Z,11.27
2017-11-24T13:37:25.351Z,12.70
2017-11-24T13:39:52.419Z,14.50
2017-11-24T13:42:18.692Z,15.00
2017-11-24T13:44:44.920Z,12.90
2017-11-24T13:47:12.065Z,11.13
2017-11-24T13:49:39.275Z,10.97
2017-11-24T13:52:05.667Z,12.03
2017-11-24T13:54:31.918Z,10.17
2017-11-24T13:56:58.921Z,10.90
2017-11-24T13:59:25.196Z,9.37
2017-11-24T14:01:51.427Z,8.37
2017-11-24T14:04:17.671Z,9.30
2017-11-24T14:06:43.910Z,10.70
2017-11-24T14:09:09.968Z,9.03
2017-11-24T14:11:36.775Z,10.10
2017-11-24T14:14:02.865Z,9.23
2017-11-24T14:16:28.935Z,10.20
2017-11-24T14:18:55.011Z,8.93
2017-11-24T14:21:21.091Z,9.37
2017-11-24T14:23:47.883Z,9.20
2017-11-24T14:26:14.711Z,10.03
2017-11-24T14:28:40.806Z,10.70
2017-11-24T14:31:07.626Z,9.17
2017-11-24T14:33:33.704Z,9.67
2017-11-24T14:35:59.775Z,11.93
2017-11-24T14:38:26.573Z,7.93
2017-11-24T14:40:52.643Z,6.90
2017-11-24T14:43:19.447Z,8.20
2017-11-24T14:45:45.533Z,6.60
2017-11-24T14:48:11.610Z,7.40
2017-11-24T14:50:37.693Z,7.17
2017-11-24T14:53:03.779Z,7.67
2017-11-24T14:55:29.841Z,8.67
2017-11-24T14:57:55.925Z,7.73
2017-11-24T15:00:22.775Z,7.20
2017-11-24T15:02:48.849Z,6.53
2017-11-24T15:05:14.903Z,8.83
2017-11-24T15:07:41.172Z,10.07
2017-11-24T15:10:07.299Z,10.90
2017-11-24T15:12:33.354Z,9.27
2017-11-24T15:14:59.416Z,8.63
2017-11-24T15:17:26.342Z,8.03
2017-11-24T15:19:52.508Z,7.63
2017-11-24T15:22:18.635Z,10.30
2017-11-24T15:24:44.707Z,8.43
2017-11-24T15:27:10.823Z,8.73
2017-11-24T15:29:37.023Z,9.07
2017-11-24T15:32:03.116Z,9.73
2017-11-24T15:34:29.931Z,9.00
2017-11-24T15:36:56.010Z,10.60
2017-11-24T15:39:22.087Z,10.00
2017-11-24T15:41:48.156Z,8.83
2017-11-24T15:44:14.243Z,10.33
2017-11-24T15:46:40.313Z,11.43
2017-11-24T15:49:06.377Z,9.90
2017-11-24T15:51:32.472Z,11.60
2017-11-24T15:53:58.546Z,11.27
2017-11-24T15:56:25.331Z,12.20
2017-11-24T15:58:51.420Z,12.67
2017-11-24T16:01:17.484Z,12.77
2017-11-24T16:03:43.547Z,12.40
2017-11-24T16:06:10.424Z,11.70
2017-11-24T16:08:36.535Z,12.10
2017-11-24T16:11:02.592Z,12.43
2017-11-24T16:13:28.680Z,13.20
2017-11-24T16:15:54.828Z,13.60
2017-11-24T16:18:20.902Z,13.57
2017-11-24T16:20:46.954Z,14.70
2017-11-24T16:23:13.028Z,14.17
2017-11-24T16:25:39.087Z,13.07
2017-11-24T16:28:05.895Z,12.40
2017-11-24T16:30:31.977Z,15.10
2017-11-24T16:32:58.051Z,14.37
2017-11-24T16:35:24.130Z,13.40
2017-11-24T16:37:50.186Z,13.83
2017-11-24T16:40:16.374Z,15.57
2017-11-24T16:42:42.438Z,15.30
2017-11-24T16:45:08.566Z,15.53
2017-11-24T16:47:34.668Z,15.70
2017-11-24T16:50:00.803Z,15.10
2017-11-24T16:52:27.654Z,14.83
2017-11-24T16:54:54.606Z,16.47
2017-11-24T16:57:20.704Z,15.30
2017-11-24T16:59:46.797Z,17.47
2017-11-24T17:02:13.783Z,17.67
2017-11-24T17:04:40.091Z,18.17
2017-11-24T17:07:06.345Z,19.37
2017-11-24T17:09:32.651Z,16.13
2017-11-24T17:12:00.455Z,15.17
2017-11-24T17:14:27.538Z,14.77
2017-11-24T17:16:53.686Z,14.87
2017-11-24T17:19:19.748Z,15.70
2017-11-24T17:21:46.664Z,16.13
2017-11-24T17:24:12.809Z,16.77
2017-11-24T17:26:39.684Z,18.03
2017-11-24T17:29:05.843Z,17.40
2017-11-24T17:31:31.953Z,15.90
2017-11-24T17:33:58.024Z,16.50
2017-11-24T17:36:24.102Z,17.70
2017-11-24T17:38:50.427Z,20.37
2017-11-24T17:41:16.749Z,18.87
2017-11-24T17:43:43.096Z,20.53
2017-11-24T17:46:09.559Z,23.60
2017-11-24T17:48:35.875Z,20.27
2017-11-24T17:51:03.519Z,19.83
2017-11-24T17:53:29.851Z,20.33
2017-11-24T17:55:56.272Z,19.57
2017-11-24T17:58:22.572Z,19.93
2017-11-24T18:00:48.876Z,18.83
2017-11-24T18:03:15.140Z,20.08
2017-11-24T18:05:41.421Z,18.20
2017-11-24T18:08:07.738Z,19.93
2017-11-24T18:10:34.018Z,21.10
2017-11-24T18:13:00.345Z,20.67
2017-11-24T18:15:26.652Z,20.57
2017-11-24T18:17:52.939Z,19.83
2017-11-24T18:20:19.226Z,20.83
2017-11-24T18:22:45.535Z,20.80
2017-11-24T18:25:11.809Z,21.23
2017-11-24T18:27:38.092Z,20.40
2017-11-24T18:30:04.377Z,20.73
2017-11-24T18:32:30.753Z,20.63
2017-11-24T18:34:58.163Z,21.10
2017-11-24T18:37:24.452Z,22.20
2017-11-24T18:39:50.742Z,21.10
2017-11-24T18:42:17.060Z,20.20
2017-11-24T18:44:43.305Z,20.60
2017-11-24T18:47:09.608Z,21.40
2017-11-24T18:49:35.885Z,19.50
2017-11-24T18:52:02.191Z,20.10
2017-11-24T18:54:28.481Z,19.70
2017-11-24T18:56:54.783Z,21.37
2017-11-24T18:59:21.790Z,20.17
2017-11-24T19:01:48.071Z,22.52
2017-11-24T19:04:14.381Z,23.60
2017-11-24T19:06:40.855Z,24.23
2017-11-24T19:09:07.136Z,22.80
2017-11-24T19:11:33.392Z,25.77
2017-11-24T19:13:59.738Z,25.57
2017-11-24T19:16:26.006Z,25.43
2017-11-24T19:18:52.291Z,22.60
2017-11-24T19:21:18.988Z,20.10
2017-11-24T19:23:45.339Z,20.07
2017-11-24T19:26:12.405Z,23.20
2017-11-24T19:28:38.687Z,18.60
2017-11-24T19:31:04.944Z,20.13
2017-11-24T19:33:31.957Z,20.53
2017-11-24T19:35:58.205Z,20.10
2017-11-24T19:38:24.509Z,20.87
2017-11-24T19:40:51.604Z,23.13
2017-11-24T19:43:17.871Z,20.20
2017-11-24T19:45:44.180Z,22.77
2017-11-24T19:48:10.462Z,22.13
2017-11-24T19:50:36.751Z,23.97
2017-11-24T19:53:03.164Z,22.67
2017-11-24T19:55:29.485Z,24.43
2017-11-24T19:57:55.782Z,23.00
2017-11-24T20:00:22.067Z,23.50
2017-11-24T20:02:48.327Z,21.23
2017-11-24T20:05:14.709Z,22.53
2017-11-24T20:07:40.992Z,23.57
2017-11-24T20:10:07.320Z,25.12
2017-11-24T20:12:34.354Z,22.70
2017-11-24T20:15:00.652Z,22.17
2017-11-24T20:17:26.939Z,23.77
2017-11-24T20:19:53.934Z,23.90
2017-11-24T20:22:20.264Z,23.87
2017-11-24T20:24:46.515Z,24.00
2017-11-24T20:27:12.792Z,24.60
2017-11-24T20:29:39.127Z,24.70
2017-11-24T20:32:05.438Z,23.70
2017-11-24T20:34:31.775Z,25.63
2017-11-24T20:36:58.065Z,24.08
2017-11-24T20:39:24.360Z,22.67
2017-11-24T20:41:50.629Z,23.60
2017-11-24T20:44:17.012Z,23.10
2017-11-24T20:46:43.257Z,21.70
2017-11-24T20:49:09.538Z,24.97
2017-11-24T20:51:36.519Z,24.67
2017-11-24T20:54:02.806Z,22.60
2017-11-24T20:56:29.802Z,21.80
2017-11-24T20:58:56.047Z,22.83
2017-11-24T21:01:23.079Z,24.10
2017-11-24T21:03:49.359Z,23.77
2017-11-24T21:06:15.647Z,21.27
2017-11-24T21:08:41.933Z,23.70
2017-11-24T21:11:09.022Z,23.20
2017-11-24T21:13:36.068Z,23.10
2017-11-24T21:16:02.350Z,21.87
2017-11-24T21:18:28.669Z,23.30
2017-11-24T21:20:54.959Z,23.67
2017-11-24T21:23:21.337Z,23.63
2017-11-24T21:25:47.626Z,22.40
2017-11-24T21:28:14.618Z,25.03
2017-11-24T21:30:40.914Z,23.33
2017-11-24T21:33:07.176Z,22.90
2017-11-24T21:35:34.197Z,25.00
2017-11-24T21:38:00.452Z,24.10
2017-11-24T21:40:26.763Z,22.83
2017-11-24T21:42:53.022Z,23.53
2017-11-24T21:45:19.261Z,22.73
2017-11-24T21:47:45.529Z,23.90
2017-11-24T21:50:12.508Z,25.17
2017-11-24T21:52:38.786Z,24.95
2017-11-24T21:55:05.812Z,25.40
2017-11-24T21:57:32.101Z,28.30
2017-11-24T21:59:58.339Z,26.10
2017-11-24T22:02:24.640Z,26.67
2017-11-24T22:04:50.974Z,24.77
2017-11-24T22:07:17.258Z,25.03
2017-11-24T22:09:43.530Z,27.93
2017-11-24T22:12:09.796Z,25.67
2017-11-24T22:14:36.046Z,27.30
2017-11-24T22:17:02.278Z,24.70
2017-11-24T22:19:28.563Z,25.88
2017-11-24T22:21:54.827Z,26.25
2017-11-24T22:24:21.845Z,24.57
2017-11-24T22:26:48.109Z,25.37
2017-11-24T22:29:14.477Z,24.57
2017-11-24T22:31:40.735Z,26.65
2017-11-24T22:34:07.004Z,25.43
2017-11-24T22:36:33.290Z,23.97
2017-11-24T22:38:59.569Z,24.10
2017-11-24T22:41:25.866Z,24.27
2017-11-24T22:43:52.111Z,26.07
2017-11-24T22:46:19.102Z,24.65
2017-11-24T22:48:45.371Z,26.03
2017-11-24T22:51:11.615Z,24.90
2017-11-24T22:53:38.671Z,25.75
2017-11-24T22:56:05.034Z,25.95
2017-11-24T22:58:31.273Z,27.37
2017-11-24T23:00:57.526Z,25.58
2017-11-24T23:03:23.902Z,24.92
2017-11-24T23:05:50.176Z,24.75
2017-11-24T23:08:17.191Z,24.63
2017-11-24T23:10:43.531Z,25.97
2017-11-24T23:13:09.856Z,24.20
2017-11-24T23:15:36.171Z,24.90
2017-11-24T23:18:02.491Z,23.92
2017-11-24T23:20:28.795Z,25.77
2017-11-24T23:22:55.167Z,25.67
2017-11-24T23:25:21.410Z,27.13
2017-11-24T23:27:47.701Z,24.42
2017-11-24T23:30:14.671Z,25.30
2017-11-24T23:32:40.927Z,24.30
2017-11-24T23:35:07.166Z,26.40
2017-11-24T23:37:34.261Z,26.08
2017-11-24T23:40:00.514Z,26.15
2017-11-24T23:42:26.753Z,23.80
2017-11-24T23:44:53.145Z,27.67
2017-11-24T23:47:19.404Z,26.57
2017-11-24T23:49:45.658Z,22.95
2017-11-24T23:52:12.649Z,25.57
2017-11-24T23:54:39.604Z,24.87
2017-11-24T23:57:05.907Z,26.27
2017-11-24T23:59:32.163Z,25.80
